createdAt,value
2018-09-04T00:02:08.145Z,14.70
2018-09-04T00:04:36.853Z,14.70
2018-09-04T00:07:05.752Z,14.70
2018-09-04T00:09:34.398Z,14.60
2018-09-04T00:12:03.089Z,14.60
2018-09-04T00:14:31.975Z,14.50
2018-09-04T00:17:00.842Z,14.50
2018-09-04T00:19:29.688Z,14.50
2018-09-04T00:21:58.392Z,14.50
2018-09-04T00:24:27.660Z,14.40
2018-09-04T00:26:56.321Z,14.40
2018-09-04T00:29:25.016Z,14.40
2018-09-04T00:31:53.716Z,14.40
2018-09-04T00:34:22.605Z,14.30
2018-09-04T00:36:51.309Z,14.30
2018-09-04T00:39:20.197Z,14.20
2018-09-04T00:41:48.857Z,14.20
2018-09-04T00:44:17.486Z,14.20
2018-09-04T00:46:46.214Z,14.10
2018-09-04T00:49:15.428Z,14.10
2018-09-04T00:51:44.079Z,14.10
2018-09-04T00:54:12.734Z,14.00
2018-09-04T00:56:41.521Z,13.90
2018-09-04T00:59:10.452Z,13.90
2018-09-04T01:01:39.153Z,13.80
2018-09-04T01:04:07.897Z,13.80
2018-09-04T01:06:36.614Z,13.80
2018-09-04T01:09:07.068Z,13.70
2018-09-04T01:11:35.757Z,13.70
2018-09-04T01:14:04.628Z,13.70
2018-09-04T01:16:33.455Z,13.70
2018-09-04T01:19:02.468Z,13.70
2018-09-04T01:21:31.133Z,13.70
2018-09-04T01:23:59.887Z,13.70
2018-09-04T01:26:28.717Z,13.60
2018-09-04T01:28:57.416Z,13.60
2018-09-04T01:31:26.052Z,13.60
2018-09-04T01:33:54.788Z,13.60
2018-09-04T01:36:23.456Z,13.60
2018-09-04T01:38:53.086Z,13.60
2018-09-04T01:41:21.796Z,13.60
2018-09-04T01:43:51.254Z,13.60
2018-09-04T01:46:19.932Z,13.60
2018-09-04T01:48:50.702Z,13.60
2018-09-04T01:51:19.654Z,13.70
2018-09-04T01:53:48.572Z,13.70
2018-09-04T01:56:17.310Z,13.60
2018-09-04T01:58:45.985Z,13.50
2018-09-04T02:01:14.686Z,13.40
2018-09-04T02:03:43.333Z,13.30
2018-09-04T02:06:12.293Z,13.30
2018-09-04T02:08:40.998Z,13.30
2018-09-04T02:11:09.657Z,13.30
2018-09-04T02:13:38.711Z,13.30
2018-09-04T02:16:07.474Z,13.20
2018-09-04T02:18:36.331Z,13.20
2018-09-04T02:21:05.102Z,13.20
2018-09-04T02:23:33.830Z,13.20
2018-09-04T02:26:02.534Z,13.10
2018-09-04T02:28:31.214Z,13.10
2018-09-04T02:31:00.002Z,13.10
2018-09-04T02:33:28.628Z,13.00
2018-09-04T02:35:57.354Z,13.00
2018-09-04T02:38:26.049Z,13.00
2018-09-04T02:40:54.803Z,13.00
2018-09-04T02:43:23.848Z,13.00
2018-09-04T02:45:52.601Z,13.00
2018-09-04T02:48:21.812Z,13.00
2018-09-04T02:50:50.879Z,12.90
2018-09-04T02:53:19.586Z,12.90
2018-09-04T02:55:48.398Z,12.90
2018-09-04T02:58:17.227Z,12.90
2018-09-04T03:00:46.001Z,12.90
2018-09-04T03:03:14.703Z,12.90
2018-09-04T03:05:43.368Z,12.90
2018-09-04T03:08:12.072Z,12.90
2018-09-04T03:10:41.173Z,12.90
2018-09-04T03:13:09.851Z,12.80
2018-09-04T03:15:38.570Z,12.70
2018-09-04T03:18:07.533Z,12.70
2018-09-04T03:20:36.290Z,12.70
2018-09-04T03:23:05.163Z,12.70
2018-09-04T03:25:33.893Z,12.70
2018-09-04T03:28:02.624Z,12.70
2018-09-04T03:30:31.722Z,12.70
2018-09-04T03:33:00.470Z,12.70
2018-09-04T03:35:29.248Z,12.60
2018-09-04T03:37:57.977Z,12.60
2018-09-04T03:40:26.712Z,12.60
2018-09-04T03:42:55.411Z,12.60
2018-09-04T03:45:24.226Z,12.60
2018-09-04T03:47:52.978Z,12.60
2018-09-04T03:50:21.669Z,12.60
2018-09-04T03:52:50.363Z,12.60
2018-09-04T03:55:18.998Z,12.60
2018-09-04T03:57:47.798Z,12.70
2018-09-04T04:00:16.909Z,12.70
2018-09-04T04:02:46.008Z,12.70
2018-09-04T04:05:14.701Z,12.70
2018-09-04T04:07:43.476Z,12.70
2018-09-04T04:10:12.146Z,12.70
2018-09-04T04:12:41.249Z,12.70
2018-09-04T04:15:09.959Z,12.70
2018-09-04T04:17:38.658Z,12.70
2018-09-04T04:20:07.718Z,12.70
2018-09-04T04:22:36.509Z,12.70
2018-09-04T04:25:05.742Z,12.70
2018-09-04T04:27:34.507Z,12.70
2018-09-04T04:30:03.187Z,12.60
2018-09-04T04:32:31.926Z,12.50
2018-09-04T04:35:07.070Z,12.50
2018-09-04T04:37:35.834Z,12.50
2018-09-04T04:40:04.708Z,12.40
2018-09-04T04:42:33.302Z,12.40
2018-09-04T04:45:02.027Z,12.40
2018-09-04T04:47:36.149Z,12.40
2018-09-04T04:50:05.105Z,12.40
2018-09-04T04:52:33.802Z,12.40
2018-09-04T04:55:02.855Z,12.40
2018-09-04T04:57:31.550Z,12.40
2018-09-04T05:00:00.496Z,12.50
2018-09-04T05:02:29.219Z,12.50
2018-09-04T05:04:57.969Z,12.50
2018-09-04T05:07:26.856Z,12.50
2018-09-04T05:09:55.551Z,12.60
2018-09-04T05:12:24.284Z,12.60
2018-09-04T05:14:53.193Z,12.60
2018-09-04T05:17:22.201Z,12.70
2018-09-04T05:19:50.918Z,12.70
2018-09-04T05:22:19.777Z,12.80
2018-09-04T05:24:48.476Z,12.80
2018-09-04T05:27:17.167Z,12.90
2018-09-04T05:29:45.858Z,12.90
2018-09-04T05:32:19.042Z,13.00
2018-09-04T05:34:47.777Z,13.00
2018-09-04T05:37:16.906Z,13.10
2018-09-04T05:39:45.828Z,13.20
2018-09-04T05:42:19.628Z,13.30
2018-09-04T05:44:48.386Z,13.40
2018-09-04T05:47:17.173Z,13.40
2018-09-04T05:49:45.951Z,13.50
2018-09-04T05:52:14.651Z,13.60
2018-09-04T05:54:43.375Z,13.80
2018-09-04T05:57:12.240Z,13.90
2018-09-04T05:59:41.082Z,14.00
2018-09-04T06:02:09.845Z,14.10
2018-09-04T06:04:38.885Z,14.20
2018-09-04T06:07:08.095Z,14.30
2018-09-04T06:09:36.869Z,14.40
2018-09-04T06:12:05.524Z,14.50
2018-09-04T06:14:34.274Z,14.60
2018-09-04T06:17:03.274Z,14.70
2018-09-04T06:19:32.215Z,14.80
2018-09-04T06:22:01.130Z,14.90
2018-09-04T06:24:29.899Z,15.00
2018-09-04T06:26:58.886Z,15.20
2018-09-04T06:29:27.652Z,15.30
2018-09-04T06:31:56.597Z,15.40
2018-09-04T06:34:25.349Z,15.50
2018-09-04T06:36:54.243Z,15.60
2018-09-04T06:39:23.026Z,15.70
2018-09-04T06:41:51.714Z,15.90
2018-09-04T06:44:20.603Z,16.00
2018-09-04T06:46:49.277Z,16.20
2018-09-04T06:49:18.099Z,16.40
2018-09-04T06:51:46.745Z,16.60
2018-09-04T06:54:15.493Z,16.80
2018-09-04T06:56:44.384Z,16.90
2018-09-04T06:59:13.083Z,17.00
2018-09-04T07:01:41.829Z,17.30
2018-09-04T07:04:10.694Z,17.60
2018-09-04T07:06:39.386Z,17.90
2018-09-04T07:09:21.053Z,18.00
2018-09-04T07:11:49.889Z,18.00
2018-09-04T07:14:18.550Z,18.20
2018-09-04T07:16:47.247Z,18.50
2018-09-04T07:19:18.495Z,18.70
2018-09-04T07:21:47.433Z,18.70
2018-09-04T07:24:16.596Z,18.90
2018-09-04T07:26:46.307Z,19.10
2018-09-04T07:29:15.154Z,19.40
2018-09-04T07:31:44.087Z,19.60
2018-09-04T07:34:12.882Z,19.80
2018-09-04T07:36:41.695Z,20.00
2018-09-04T07:39:11.674Z,20.20
2018-09-04T07:41:40.642Z,20.50
2018-09-04T07:44:09.365Z,20.70
2018-09-04T07:46:38.503Z,20.70
2018-09-04T07:49:07.193Z,20.70
2018-09-04T07:51:35.961Z,20.70
2018-09-04T07:54:04.659Z,20.60
2018-09-04T07:56:33.408Z,20.80
2018-09-04T07:59:02.194Z,20.90
2018-09-04T08:01:30.927Z,21.10
2018-09-04T08:03:59.614Z,21.20
2018-09-04T08:06:28.400Z,21.40
2018-09-04T08:08:58.502Z,21.50
2018-09-04T08:11:27.278Z,21.60
2018-09-04T08:13:55.958Z,21.90
2018-09-04T08:16:24.835Z,22.00
2018-09-04T08:18:53.437Z,22.30
2018-09-04T08:21:22.162Z,22.30
2018-09-04T08:23:50.867Z,22.40
2018-09-04T08:26:19.630Z,22.60
2018-09-04T08:28:48.309Z,22.80
2018-09-04T08:31:17.086Z,22.90
2018-09-04T08:33:45.786Z,23.20
2018-09-04T08:36:14.487Z,23.30
2018-09-04T08:38:48.975Z,23.50
2018-09-04T08:41:17.677Z,23.80
2018-09-04T08:43:46.473Z,24.30
2018-09-04T08:46:15.224Z,24.70
2018-09-04T08:48:43.957Z,24.70
2018-09-04T08:51:12.646Z,24.90
2018-09-04T08:53:41.367Z,25.20
2018-09-04T08:56:10.039Z,25.30
2018-09-04T08:58:38.821Z,25.30
2018-09-04T09:01:07.646Z,25.30
2018-09-04T09:03:36.344Z,25.50
2018-09-04T09:06:05.088Z,25.90
2018-09-04T09:08:33.850Z,26.00
2018-09-04T09:11:02.562Z,26.20
2018-09-04T09:13:31.302Z,26.60
2018-09-04T09:16:00.016Z,27.10
2018-09-04T09:18:28.733Z,27.50
2018-09-04T09:20:57.442Z,27.90
2018-09-04T09:23:26.190Z,28.10
2018-09-04T09:25:54.962Z,28.40
2018-09-04T09:28:23.710Z,28.90
2018-09-04T09:30:52.434Z,29.20
2018-09-04T09:33:21.161Z,29.10
2018-09-04T09:35:49.878Z,29.10
2018-09-04T09:38:18.591Z,28.50
2018-09-04T09:40:47.335Z,28.00
2018-09-04T09:43:16.158Z,27.80
2018-09-04T09:45:44.862Z,28.00
2018-09-04T09:48:13.597Z,28.30
2018-09-04T09:50:42.366Z,28.60
2018-09-04T09:53:11.132Z,28.70
2018-09-04T09:55:39.767Z,28.30
2018-09-04T09:58:08.518Z,27.90
2018-09-04T10:00:42.417Z,27.90
2018-09-04T10:03:16.529Z,27.60
2018-09-04T10:05:45.422Z,26.80
2018-09-04T10:08:14.150Z,27.20
2018-09-04T10:10:42.841Z,28.00
2018-09-04T10:13:11.506Z,28.60
2018-09-04T10:15:40.234Z,28.90
2018-09-04T10:18:09.188Z,28.60
2018-09-04T10:20:37.892Z,28.40
2018-09-04T10:23:06.706Z,28.30
2018-09-04T10:25:35.439Z,28.40
2018-09-04T10:28:04.119Z,28.60
2018-09-04T10:30:32.766Z,28.20
2018-09-04T10:33:01.465Z,28.70
2018-09-04T10:35:30.241Z,29.20
2018-09-04T10:37:58.968Z,29.10
2018-09-04T10:40:32.880Z,29.10
2018-09-04T10:43:01.599Z,29.40
2018-09-04T10:45:35.635Z,29.60
2018-09-04T10:48:04.378Z,29.50
2018-09-04T10:50:33.125Z,29.50
2018-09-04T10:53:01.774Z,29.40
2018-09-04T10:55:30.532Z,29.20
2018-09-04T10:57:59.286Z,29.10
2018-09-04T11:00:27.979Z,29.30
2018-09-04T11:02:56.752Z,29.70
2018-09-04T11:05:25.484Z,30.40
2018-09-04T11:07:54.226Z,30.90
2018-09-04T11:10:22.965Z,31.10
2018-09-04T11:12:52.019Z,30.60
2018-09-04T11:15:20.738Z,30.30
2018-09-04T11:17:49.477Z,29.50
2018-09-04T11:20:18.182Z,29.20
2018-09-04T11:22:46.828Z,29.40
2018-09-04T11:25:15.494Z,29.70
2018-09-04T11:27:44.203Z,30.20
2018-09-04T11:30:13.726Z,30.40
2018-09-04T11:32:43.306Z,30.80
2018-09-04T11:35:12.423Z,31.00
2018-09-04T11:37:41.163Z,30.60
2018-09-04T11:40:10.318Z,30.50
2018-09-04T11:42:38.994Z,30.70
2018-09-04T11:45:08.668Z,31.20
2018-09-04T11:47:37.435Z,31.70
2018-09-04T11:50:06.856Z,31.90
2018-09-04T11:52:35.545Z,31.80
2018-09-04T11:55:04.354Z,32.00
2018-09-04T11:57:34.455Z,32.40
2018-09-04T12:00:03.581Z,32.60
2018-09-04T12:02:35.911Z,32.70
2018-09-04T12:05:04.860Z,32.90
2018-09-04T12:07:33.508Z,33.00
2018-09-04T12:10:02.230Z,33.10
2018-09-04T12:12:32.249Z,33.10
2018-09-04T12:15:00.813Z,32.90
2018-09-04T12:17:30.283Z,32.90
2018-09-04T12:21:03.071Z,32.60
2018-09-04T12:23:31.750Z,32.40
2018-09-04T12:26:01.658Z,32.40
2018-09-04T12:28:30.342Z,32.10
2018-09-04T12:30:59.585Z,32.00
2018-09-04T12:33:28.378Z,31.60
2018-09-04T12:36:03.230Z,31.40
2018-09-04T12:38:34.082Z,31.60
2018-09-04T12:41:11.805Z,31.60
2018-09-04T12:43:40.479Z,31.80
2018-09-04T12:46:09.202Z,31.90
2018-09-04T12:48:37.874Z,31.80
2018-09-04T12:51:06.830Z,31.60
2018-09-04T12:53:35.739Z,31.70
2018-09-04T12:56:04.533Z,32.00
2018-09-04T12:58:33.344Z,32.40
2018-09-04T13:01:02.103Z,32.40
2018-09-04T13:03:32.101Z,32.20
2018-09-04T13:06:00.859Z,32.00
2018-09-04T13:08:31.586Z,32.00
2018-09-04T13:11:00.295Z,32.20
2018-09-04T13:13:29.348Z,31.80
2018-09-04T13:15:59.697Z,31.50
2018-09-04T13:18:28.924Z,31.90
2018-09-04T13:21:02.104Z,32.20
2018-09-04T13:23:31.812Z,32.70
2018-09-04T13:26:00.726Z,33.50
2018-09-04T13:28:30.216Z,34.30
2018-09-04T13:30:59.015Z,35.30
2018-09-04T13:33:27.681Z,36.10
2018-09-04T13:35:56.430Z,36.80
2018-09-04T13:38:25.153Z,37.40
2018-09-04T13:40:59.250Z,38.20
2018-09-04T13:43:28.051Z,38.40
2018-09-04T13:45:56.747Z,38.80
2018-09-04T13:48:28.630Z,39.30
2018-09-04T13:50:58.089Z,39.80
2018-09-04T13:53:27.517Z,40.60
2018-09-04T13:55:56.637Z,41.10
2018-09-04T13:58:25.314Z,41.40
2018-09-04T14:00:54.313Z,40.80
2018-09-04T14:03:23.160Z,39.60
2018-09-04T14:05:51.794Z,38.70
2018-09-04T14:08:20.665Z,38.00
2018-09-04T14:10:49.739Z,37.70
2018-09-04T14:13:18.385Z,38.20
2018-09-04T14:15:47.173Z,39.30
2018-09-04T14:18:15.883Z,39.80
2018-09-04T14:20:44.662Z,41.00
2018-09-04T14:23:13.529Z,41.80
2018-09-04T14:25:42.262Z,42.90
2018-09-04T14:28:10.982Z,43.80
2018-09-04T14:30:39.825Z,43.50
2018-09-04T14:33:08.706Z,43.70
2018-09-04T14:35:37.434Z,43.60
2018-09-04T14:38:06.093Z,42.70
2018-09-04T14:40:34.856Z,41.70
2018-09-04T14:43:03.520Z,42.40
2018-09-04T14:45:32.435Z,42.70
2018-09-04T14:48:01.459Z,43.20
2018-09-04T14:50:30.160Z,42.80
2018-09-04T14:52:58.823Z,41.20
2018-09-04T14:55:27.551Z,39.40
2018-09-04T14:57:56.555Z,38.20
2018-09-04T15:00:25.463Z,36.60
2018-09-04T15:02:54.170Z,35.90
2018-09-04T15:05:22.858Z,35.80
2018-09-04T15:07:51.547Z,36.20
2018-09-04T15:10:20.464Z,37.40
2018-09-04T15:12:49.215Z,38.60
2018-09-04T15:15:17.954Z,39.10
2018-09-04T15:17:46.712Z,38.80
2018-09-04T15:20:15.352Z,38.50
2018-09-04T15:22:44.314Z,38.40
2018-09-04T15:25:12.943Z,37.70
2018-09-04T15:27:41.555Z,37.40
2018-09-04T15:30:10.311Z,37.50
2018-09-04T15:32:39.010Z,38.20
2018-09-04T15:35:07.694Z,39.30
2018-09-04T15:37:36.422Z,40.50
2018-09-04T15:40:05.158Z,41.50
2018-09-04T15:42:33.832Z,42.70
2018-09-04T15:45:02.474Z,43.20
2018-09-04T15:47:31.149Z,42.80
2018-09-04T15:49:59.781Z,40.40
2018-09-04T15:52:28.434Z,38.00
2018-09-04T15:54:57.444Z,36.20
2018-09-04T15:57:26.420Z,34.80
2018-09-04T15:59:55.138Z,33.80
2018-09-04T16:02:24.651Z,33.50
2018-09-04T16:04:54.297Z,33.60
2018-09-04T16:07:24.447Z,33.20
2018-09-04T16:09:54.027Z,33.00
2018-09-04T16:12:24.536Z,33.30
2018-09-04T16:14:53.207Z,34.50
2018-09-04T16:17:21.929Z,36.20
2018-09-04T16:19:50.656Z,37.50
2018-09-04T16:22:19.406Z,38.30
2018-09-04T16:24:48.126Z,39.20
2018-09-04T16:27:16.766Z,39.60
2018-09-04T16:29:45.458Z,40.50
2018-09-04T16:32:14.326Z,40.60
2018-09-04T16:34:43.114Z,40.30
2018-09-04T16:37:11.770Z,40.10
2018-09-04T16:39:40.466Z,39.80
2018-09-04T16:42:09.501Z,39.30
2018-09-04T16:44:38.594Z,38.70
2018-09-04T16:47:07.490Z,38.10
2018-09-04T16:49:36.188Z,37.20
2018-09-04T16:52:04.923Z,36.10
2018-09-04T16:54:33.676Z,34.60
2018-09-04T16:57:02.598Z,33.10
2018-09-04T16:59:31.306Z,31.50
2018-09-04T17:02:00.019Z,30.20
2018-09-04T17:04:29.213Z,29.40
2018-09-04T17:06:57.954Z,29.00
2018-09-04T17:09:26.899Z,28.70
2018-09-04T17:11:55.779Z,28.50
2018-09-04T17:14:24.481Z,28.30
2018-09-04T17:16:53.129Z,28.00
2018-09-04T17:19:21.872Z,27.60
2018-09-04T17:21:50.685Z,27.30
2018-09-04T17:24:19.274Z,27.10
2018-09-04T17:26:47.913Z,27.10
2018-09-04T17:29:16.644Z,27.00
2018-09-04T17:31:45.483Z,26.90
2018-09-04T17:34:14.213Z,26.80
2018-09-04T17:36:42.924Z,26.60
2018-09-04T17:39:11.674Z,26.50
2018-09-04T17:41:40.422Z,26.40
2018-09-04T17:44:09.111Z,26.30
2018-09-04T17:46:37.797Z,26.20
2018-09-04T17:49:06.547Z,25.90
2018-09-04T17:51:35.375Z,25.60
2018-09-04T17:54:04.158Z,25.40
2018-09-04T17:56:32.890Z,25.20
2018-09-04T17:59:01.658Z,24.80
2018-09-04T18:01:30.459Z,24.50
2018-09-04T18:03:59.177Z,24.30
2018-09-04T18:06:28.009Z,24.20
2018-09-04T18:08:56.682Z,24.10
2018-09-04T18:11:25.403Z,24.00
2018-09-04T18:13:54.123Z,23.90
2018-09-04T18:16:22.834Z,23.80
2018-09-04T18:18:51.540Z,23.70
2018-09-04T18:21:20.315Z,23.60
2018-09-04T18:23:49.108Z,23.40
2018-09-04T18:26:17.878Z,23.40
2018-09-04T18:28:46.576Z,23.20
2018-09-04T18:31:15.308Z,23.20
2018-09-04T18:33:44.046Z,23.10
2018-09-04T18:36:12.892Z,23.00
2018-09-04T18:38:41.615Z,22.90
2018-09-04T18:41:10.311Z,22.80
2018-09-04T18:43:39.026Z,22.80
2018-09-04T18:46:07.796Z,22.70
2018-09-04T18:48:36.514Z,22.70
2018-09-04T18:51:05.230Z,22.60
2018-09-04T18:53:33.911Z,22.50
2018-09-04T18:56:02.617Z,22.50
2018-09-04T18:58:31.385Z,22.40
2018-09-04T19:01:00.463Z,22.30
2018-09-04T19:03:29.554Z,22.20
2018-09-04T19:05:58.322Z,22.10
2018-09-04T19:08:27.038Z,22.00
2018-09-04T19:10:55.810Z,21.90
2018-09-04T19:13:24.519Z,21.80
2018-09-04T19:15:53.210Z,21.70
2018-09-04T19:18:21.891Z,21.60
2018-09-04T19:20:50.588Z,21.50
2018-09-04T19:23:19.848Z,21.40
2018-09-04T19:25:48.491Z,21.30
2018-09-04T19:28:17.319Z,21.30
2018-09-04T19:30:46.045Z,21.20
2018-09-04T19:33:14.713Z,21.20
2018-09-04T19:35:43.426Z,21.10
2018-09-04T19:38:12.106Z,21.00
2018-09-04T19:40:40.850Z,21.00
2018-09-04T19:43:09.709Z,20.90
2018-09-04T19:45:38.318Z,20.90
2018-09-04T19:48:06.981Z,20.80
2018-09-04T19:50:35.743Z,20.80
2018-09-04T19:53:04.654Z,20.80
2018-09-04T19:55:33.419Z,20.70
2018-09-04T19:58:02.148Z,20.60
2018-09-04T20:00:30.818Z,20.60
2018-09-04T20:02:59.623Z,20.60
2018-09-04T20:05:28.306Z,20.50
2018-09-04T20:07:57.038Z,20.50
2018-09-04T20:10:25.766Z,20.40
2018-09-04T20:12:54.496Z,20.40
2018-09-04T20:15:23.191Z,20.30
2018-09-04T20:17:51.914Z,20.20
2018-09-04T20:20:20.570Z,20.10
2018-09-04T20:22:50.345Z,20.10
2018-09-04T20:25:19.015Z,20.00
2018-09-04T20:27:47.794Z,19.90
2018-09-04T20:30:53.349Z,19.90
2018-09-04T20:33:21.817Z,19.80
2018-09-04T20:35:50.350Z,19.80
2018-09-04T20:38:18.825Z,19.80
2018-09-04T20:40:47.262Z,19.80
2018-09-04T20:43:15.733Z,19.80
2018-09-04T20:45:44.197Z,19.80
2018-09-04T20:48:12.669Z,19.80
2018-09-04T20:50:41.273Z,19.70
2018-09-04T20:53:09.917Z,19.70
2018-09-04T20:55:38.936Z,19.70
2018-09-04T20:58:19.006Z,19.70
2018-09-04T21:00:58.586Z,19.70
2018-09-04T21:03:38.673Z,19.60
2018-09-04T21:06:18.376Z,19.60
2018-09-04T21:08:56.220Z,19.50
2018-09-04T21:11:24.897Z,19.50
2018-09-04T21:13:53.651Z,19.50
2018-09-04T21:16:22.271Z,19.50
2018-09-04T21:18:50.993Z,19.40
2018-09-04T21:21:19.693Z,19.40
2018-09-04T21:23:48.390Z,19.30
2018-09-04T21:26:17.023Z,19.30
2018-09-04T21:28:45.807Z,19.30
2018-09-04T21:31:14.508Z,19.20
2018-09-04T21:33:43.629Z,19.10
2018-09-04T21:36:12.358Z,19.10
2018-09-04T21:38:41.141Z,19.00
2018-09-04T21:41:09.855Z,18.90
2018-09-04T21:43:38.581Z,18.90
2018-09-04T21:46:07.367Z,18.80
2018-09-04T21:48:36.224Z,18.80
2018-09-04T21:51:05.003Z,18.70
2018-09-04T21:53:33.703Z,18.70
2018-09-04T21:56:02.384Z,18.70
2018-09-04T21:58:31.073Z,18.70
2018-09-04T22:00:59.916Z,18.60
2018-09-04T22:03:28.670Z,18.60
2018-09-04T22:05:57.374Z,18.50
2018-09-04T22:08:26.095Z,18.40
2018-09-04T22:10:54.881Z,18.30
2018-09-04T22:13:23.565Z,18.20
2018-09-04T22:15:52.269Z,18.20
2018-09-04T22:18:20.942Z,18.20
2018-09-04T22:20:49.614Z,18.20
2018-09-04T22:23:18.335Z,18.20
2018-09-04T22:25:47.034Z,18.10
2018-09-04T22:28:15.673Z,18.10
2018-09-04T22:30:44.380Z,18.00
2018-09-04T22:33:13.106Z,18.00
2018-09-04T22:35:41.862Z,17.90
2018-09-04T22:38:10.565Z,17.90
2018-09-04T22:40:39.345Z,17.80
2018-09-04T22:43:08.024Z,17.80
2018-09-04T22:45:36.933Z,17.70
2018-09-04T22:48:05.670Z,17.60
2018-09-04T22:50:39.507Z,17.50
2018-09-04T22:53:08.158Z,17.50
2018-09-04T22:55:36.866Z,17.40
2018-09-04T22:58:05.628Z,17.40
2018-09-04T23:00:34.297Z,17.40
2018-09-04T23:03:03.038Z,17.30
2018-09-04T23:05:31.702Z,17.30
2018-09-04T23:08:00.437Z,17.30
2018-09-04T23:10:29.150Z,17.20
2018-09-04T23:12:57.878Z,17.10
2018-09-04T23:15:26.548Z,17.10
2018-09-04T23:17:55.230Z,17.00
2018-09-04T23:20:23.922Z,17.00
2018-09-04T23:22:52.584Z,16.90
2018-09-04T23:25:21.300Z,16.90
2018-09-04T23:27:49.993Z,16.90
2018-09-04T23:30:22.585Z,16.90
2018-09-04T23:32:51.225Z,16.90
2018-09-04T23:35:19.922Z,16.90
2018-09-04T23:37:48.598Z,16.80
2018-09-04T23:40:17.310Z,16.70
2018-09-04T23:42:45.982Z,16.70
2018-09-04T23:45:14.918Z,16.60
2018-09-04T23:47:44.368Z,16.60
2018-09-04T23:50:13.060Z,16.60
2018-09-04T23:52:42.004Z,16.50
2018-09-04T23:55:10.718Z,16.50
2018-09-04T23:57:39.870Z,16.50
